createdAt,value
2024-01-12T00:01:51.255Z,68.89
2024-01-12T00:04:17.858Z,69.40
2024-01-12T00:06:44.458Z,69.29
2024-01-12T00:09:12.874Z,69.36
2024-01-12T00:11:39.427Z,69.28
2024-01-12T00:14:06.025Z,69.27
2024-01-12T00:16:32.416Z,69.13
2024-01-12T00:18:58.914Z,69.41
2024-01-12T00:21:25.522Z,69.94
2024-01-12T00:23:52.339Z,69.25
2024-01-12T00:26:18.938Z,68.91
2024-01-12T00:28:45.400Z,68.74
2024-01-12T00:31:12.076Z,68.51
2024-01-12T00:33:38.650Z,68.56
2024-01-12T00:36:05.454Z,69.11
2024-01-12T00:38:32.094Z,69.18
2024-01-12T00:40:59.081Z,68.97
2024-01-12T00:43:25.537Z,68.99
2024-01-12T00:45:53.250Z,69.11
2024-01-12T00:48:19.875Z,69.42
2024-01-12T00:50:49.176Z,69.33
2024-01-12T00:53:15.714Z,69.51
2024-01-12T00:55:42.341Z,70.05
2024-01-12T00:58:08.891Z,69.60
2024-01-12T01:00:35.408Z,70.20
2024-01-12T01:03:05.119Z,69.61
2024-01-12T01:05:32.001Z,69.56
2024-01-12T01:07:58.653Z,69.93
2024-01-12T01:10:25.073Z,69.95
2024-01-12T01:12:51.732Z,69.09
2024-01-12T01:15:18.351Z,69.67
2024-01-12T01:17:44.855Z,69.23
2024-01-12T01:20:13.007Z,69.16
2024-01-12T01:22:39.485Z,69.13
2024-01-12T01:25:07.590Z,69.19
2024-01-12T01:27:34.133Z,69.16
2024-01-12T01:30:01.408Z,68.69
2024-01-12T01:32:28.281Z,69.11
2024-01-12T01:34:54.992Z,69.21
2024-01-12T01:37:21.532Z,69.32
2024-01-12T01:39:48.063Z,69.52
2024-01-12T01:42:14.513Z,70.15
2024-01-12T01:44:40.959Z,70.23
2024-01-12T01:47:07.768Z,70.25
2024-01-12T01:49:35.423Z,69.74
2024-01-12T01:52:02.314Z,69.62
2024-01-12T01:54:29.452Z,69.51
2024-01-12T01:56:57.203Z,69.10
2024-01-12T01:59:23.875Z,69.88
2024-01-12T02:01:50.308Z,69.18
2024-01-12T02:04:17.390Z,69.46
2024-01-12T02:06:46.822Z,68.98
2024-01-12T02:09:13.497Z,69.04
2024-01-12T02:11:40.042Z,68.85
2024-01-12T02:14:08.505Z,68.82
2024-01-12T02:16:36.095Z,68.93
2024-01-12T02:19:02.654Z,69.04
2024-01-12T02:21:30.397Z,68.22
2024-01-12T02:23:56.937Z,68.09
2024-01-12T02:26:24.149Z,68.85
2024-01-12T02:28:50.786Z,68.38
2024-01-12T02:31:17.566Z,68.94
2024-01-12T02:33:44.387Z,68.08
2024-01-12T02:36:10.812Z,68.51
2024-01-12T02:38:37.459Z,68.57
2024-01-12T02:41:03.996Z,69.12
2024-01-12T02:43:30.420Z,68.77
2024-01-12T02:45:57.095Z,69.34
2024-01-12T02:48:23.618Z,69.05
2024-01-12T02:50:50.529Z,68.77
2024-01-12T02:53:18.490Z,68.75
2024-01-12T02:55:44.959Z,68.58
2024-01-12T02:58:11.361Z,68.74
2024-01-12T03:00:38.087Z,69.34
2024-01-12T03:03:04.763Z,68.99
2024-01-12T03:05:32.623Z,69.28
2024-01-12T03:07:59.261Z,68.68
2024-01-12T03:10:25.684Z,68.32
2024-01-12T03:12:52.407Z,68.36
2024-01-12T03:15:19.241Z,68.18
2024-01-12T03:17:45.773Z,68.61
2024-01-12T03:20:12.506Z,68.74
2024-01-12T03:22:39.018Z,68.50
2024-01-12T03:25:05.792Z,68.60
2024-01-12T03:27:34.711Z,68.29
2024-01-12T03:30:01.248Z,68.66
2024-01-12T03:32:28.010Z,68.58
2024-01-12T03:34:54.936Z,68.70
2024-01-12T03:37:21.402Z,68.85
2024-01-12T03:39:47.846Z,68.78
2024-01-12T03:42:14.323Z,68.46
2024-01-12T03:44:41.110Z,68.65
2024-01-12T03:47:07.702Z,68.34
2024-01-12T03:49:34.666Z,68.70
2024-01-12T03:52:14.568Z,68.13
2024-01-12T03:54:42.744Z,68.54
2024-01-12T03:57:09.350Z,68.55
2024-01-12T03:59:35.934Z,68.80
2024-01-12T04:02:02.442Z,69.22
2024-01-12T04:04:28.989Z,68.79
2024-01-12T04:06:55.514Z,68.80
2024-01-12T04:09:22.120Z,68.45
2024-01-12T04:11:48.974Z,68.71
2024-01-12T04:14:15.742Z,67.91
2024-01-12T04:16:42.456Z,68.54
2024-01-12T04:19:08.964Z,68.19
2024-01-12T04:21:35.500Z,68.42
2024-01-12T04:24:02.219Z,68.42
2024-01-12T04:26:28.973Z,68.35
2024-01-12T04:28:55.791Z,68.76
2024-01-12T04:31:22.275Z,68.48
2024-01-12T04:33:48.867Z,68.17
2024-01-12T04:36:15.420Z,68.56
2024-01-12T04:38:41.901Z,68.69
2024-01-12T04:41:08.408Z,68.41
2024-01-12T04:43:34.892Z,68.92
2024-01-12T04:46:01.361Z,68.65
2024-01-12T04:48:27.940Z,68.71
2024-01-12T04:50:54.664Z,68.63
2024-01-12T04:53:22.135Z,68.74
2024-01-12T04:55:50.396Z,68.30
2024-01-12T04:58:16.893Z,68.70
2024-01-12T05:00:43.509Z,68.22
2024-01-12T05:03:11.215Z,68.51
2024-01-12T05:05:39.770Z,68.69
2024-01-12T05:08:06.499Z,68.29
2024-01-12T05:10:33.186Z,68.16
2024-01-12T05:13:01.663Z,69.36
2024-01-12T05:15:28.094Z,68.95
2024-01-12T05:17:54.641Z,68.35
2024-01-12T05:20:22.663Z,69.04
2024-01-12T05:22:49.190Z,68.46
2024-01-12T05:25:15.759Z,68.22
2024-01-12T05:27:42.272Z,68.10
2024-01-12T05:30:09.116Z,67.87
2024-01-12T05:32:35.947Z,67.90
2024-01-12T05:35:02.661Z,68.18
2024-01-12T05:37:29.114Z,67.91
2024-01-12T05:39:55.703Z,67.85
2024-01-12T05:42:22.128Z,68.07
2024-01-12T05:44:48.765Z,68.04
2024-01-12T05:47:15.527Z,67.48
2024-01-12T05:49:42.371Z,68.36
2024-01-12T05:52:08.832Z,68.55
2024-01-12T05:54:35.296Z,68.33
2024-01-12T05:57:01.879Z,68.55
2024-01-12T05:59:28.484Z,68.62
2024-01-12T06:01:55.556Z,68.82
2024-01-12T06:04:22.202Z,69.02
2024-01-12T06:06:49.690Z,69.08
2024-01-12T06:09:16.482Z,68.68
2024-01-12T06:11:44.194Z,68.67
2024-01-12T06:14:11.371Z,68.62
2024-01-12T06:16:38.173Z,68.43
2024-01-12T06:19:04.819Z,69.04
2024-01-12T06:21:31.496Z,68.49
2024-01-12T06:23:57.986Z,68.11
2024-01-12T06:26:24.857Z,67.91
2024-01-12T06:28:51.254Z,68.34
2024-01-12T06:31:17.737Z,68.42
2024-01-12T06:33:44.553Z,67.98
2024-01-12T06:36:11.161Z,67.91
2024-01-12T06:38:37.840Z,67.54
2024-01-12T06:41:04.395Z,67.87
2024-01-12T06:43:30.939Z,67.79
2024-01-12T06:45:57.446Z,68.40
2024-01-12T06:48:23.983Z,68.44
2024-01-12T06:50:50.794Z,68.60
2024-01-12T06:53:17.367Z,68.57
2024-01-12T06:55:43.986Z,68.27
2024-01-12T06:58:10.485Z,68.50
2024-01-12T07:00:37.241Z,68.67
2024-01-12T07:03:04.125Z,68.33
2024-01-12T07:05:30.746Z,67.62
2024-01-12T07:07:57.214Z,67.37
2024-01-12T07:10:23.937Z,67.74
2024-01-12T07:12:53.305Z,67.67
2024-01-12T07:15:21.313Z,67.64
2024-01-12T07:17:50.479Z,67.48
2024-01-12T07:20:18.598Z,67.55
2024-01-12T07:22:46.203Z,67.87
2024-01-12T07:25:12.856Z,67.49
2024-01-12T07:27:39.328Z,67.73
2024-01-12T07:30:06.757Z,67.94
2024-01-12T07:32:35.769Z,68.10
2024-01-12T07:35:02.636Z,68.17
2024-01-12T07:37:29.175Z,68.05
2024-01-12T07:39:55.671Z,68.08
2024-01-12T07:42:22.108Z,68.45
2024-01-12T07:44:48.688Z,68.47
2024-01-12T07:47:15.489Z,68.19
2024-01-12T07:49:42.162Z,68.05
2024-01-12T07:52:09.810Z,68.10
2024-01-12T07:54:37.941Z,68.43
2024-01-12T07:57:04.590Z,68.10
2024-01-12T07:59:31.146Z,67.24
2024-01-12T08:01:57.837Z,65.45
2024-01-12T08:04:24.382Z,64.77
2024-01-12T08:06:51.042Z,63.86
2024-01-12T08:09:17.577Z,63.28
2024-01-12T08:11:44.386Z,62.91
2024-01-12T08:14:11.078Z,61.70
2024-01-12T08:16:37.554Z,59.50
2024-01-12T08:19:04.170Z,59.43
2024-01-12T08:21:41.101Z,60.16
2024-01-12T08:24:15.401Z,57.28
2024-01-12T08:26:41.934Z,56.20
2024-01-12T08:29:08.348Z,57.29
2024-01-12T08:31:34.835Z,58.30
2024-01-12T08:34:01.714Z,56.98
2024-01-12T08:36:28.281Z,56.51
2024-01-12T08:38:54.845Z,56.03
2024-01-12T08:41:21.581Z,52.41
2024-01-12T08:43:48.080Z,55.16
2024-01-12T08:46:14.553Z,53.66
2024-01-12T08:48:43.068Z,53.99
2024-01-12T08:51:11.412Z,51.13
2024-01-12T08:53:38.213Z,49.00
2024-01-12T08:56:06.538Z,50.60
2024-01-12T08:58:34.851Z,53.41
2024-01-12T09:01:02.451Z,49.27
2024-01-12T09:03:29.165Z,53.76
2024-01-12T09:05:55.866Z,44.30
2024-01-12T09:08:22.364Z,47.62
2024-01-12T09:10:48.871Z,49.17
2024-01-12T09:13:15.499Z,45.83
2024-01-12T09:15:42.091Z,47.21
2024-01-12T09:18:09.513Z,48.23
2024-01-12T09:20:37.660Z,46.40
2024-01-12T09:23:04.554Z,46.88
2024-01-12T09:25:32.290Z,45.32
2024-01-12T09:27:58.884Z,47.75
2024-01-12T09:30:25.556Z,45.83
2024-01-12T09:32:52.195Z,46.40
2024-01-12T09:35:18.857Z,48.60
2024-01-12T09:37:45.389Z,47.01
2024-01-12T09:40:12.676Z,48.35
2024-01-12T09:42:43.197Z,48.22
2024-01-12T09:45:19.242Z,49.07
2024-01-12T09:47:49.607Z,48.64
2024-01-12T09:50:17.345Z,48.53
2024-01-12T09:52:43.973Z,49.40
2024-01-12T09:55:10.761Z,49.07
2024-01-12T09:57:39.485Z,48.21
2024-01-12T10:00:10.009Z,49.18
2024-01-12T10:02:36.686Z,50.05
2024-01-12T10:05:03.168Z,49.52
2024-01-12T10:07:29.882Z,50.32
2024-01-12T10:09:56.264Z,50.14
2024-01-12T10:12:22.900Z,48.89
2024-01-12T10:14:59.831Z,49.45
2024-01-12T10:17:26.367Z,49.65
2024-01-12T10:19:52.901Z,50.41
2024-01-12T10:22:19.534Z,50.65
2024-01-12T10:24:46.249Z,50.98
2024-01-12T10:27:14.088Z,50.71
2024-01-12T10:29:40.592Z,50.95
2024-01-12T10:32:07.680Z,51.04
2024-01-12T10:34:35.422Z,50.49
2024-01-12T10:37:03.241Z,50.69
2024-01-12T10:39:35.302Z,49.91
2024-01-12T10:42:03.094Z,50.32
2024-01-12T10:44:36.130Z,49.23
2024-01-12T10:47:07.053Z,49.77
2024-01-12T10:50:05.681Z,49.14
2024-01-12T10:53:11.055Z,48.38
2024-01-12T10:55:38.923Z,49.02
2024-01-12T10:58:06.626Z,47.51
2024-01-12T11:00:33.743Z,48.32
2024-01-12T11:03:01.706Z,48.51
2024-01-12T11:05:29.368Z,48.26
2024-01-12T11:08:00.591Z,48.13
2024-01-12T11:10:28.989Z,47.97
2024-01-12T11:12:59.332Z,48.87
2024-01-12T11:15:27.453Z,48.06
2024-01-12T11:17:55.000Z,47.56
2024-01-12T11:20:22.130Z,47.93
2024-01-12T11:22:50.042Z,48.55
2024-01-12T11:25:19.495Z,47.15
2024-01-12T11:27:51.059Z,47.35
2024-01-12T11:30:19.772Z,47.14
2024-01-12T11:32:47.596Z,47.30
2024-01-12T11:35:21.576Z,47.05
2024-01-12T11:38:01.161Z,46.74
2024-01-12T11:40:28.839Z,46.35
2024-01-12T11:42:56.016Z,45.82
2024-01-12T11:45:22.816Z,45.54
2024-01-12T11:47:49.363Z,46.42
2024-01-12T11:50:17.204Z,46.26
2024-01-12T11:52:44.010Z,45.78
2024-01-12T11:55:11.747Z,45.36
2024-01-12T11:57:39.281Z,45.16
2024-01-12T12:00:07.538Z,44.85
2024-01-12T12:02:36.410Z,45.62
2024-01-12T12:05:13.018Z,45.90
2024-01-12T12:07:41.863Z,45.91
2024-01-12T12:10:10.745Z,46.53
2024-01-12T12:12:38.632Z,46.14
2024-01-12T12:15:06.383Z,46.34
2024-01-12T12:17:37.284Z,46.18
2024-01-12T12:20:12.166Z,46.45
2024-01-12T12:22:43.531Z,47.02
2024-01-12T12:25:10.958Z,46.51
2024-01-12T12:27:42.067Z,46.22
2024-01-12T12:30:11.959Z,47.37
2024-01-12T12:32:41.530Z,47.74
2024-01-12T12:35:15.225Z,48.20
2024-01-12T12:37:45.651Z,46.63
2024-01-12T12:40:12.820Z,46.37
2024-01-12T12:42:40.450Z,47.12
2024-01-12T12:45:08.078Z,46.54
2024-01-12T12:47:35.405Z,46.11
2024-01-12T12:50:02.493Z,47.11
2024-01-12T12:52:31.772Z,47.08
2024-01-12T12:54:58.357Z,46.80
2024-01-12T12:57:24.771Z,47.47
2024-01-12T12:59:51.760Z,46.84
2024-01-12T13:02:18.150Z,47.33
2024-01-12T13:04:44.573Z,47.26
2024-01-12T13:07:11.104Z,46.91
2024-01-12T13:09:38.056Z,48.25
2024-01-12T13:12:05.328Z,47.72
2024-01-12T13:14:32.446Z,48.83
2024-01-12T13:16:59.414Z,47.61
2024-01-12T13:19:27.093Z,48.54
2024-01-12T13:21:54.607Z,48.29
2024-01-12T13:24:21.148Z,47.66
2024-01-12T13:26:47.845Z,49.00
2024-01-12T13:29:14.281Z,48.57
2024-01-12T13:31:43.836Z,49.28
2024-01-12T13:34:12.592Z,49.12
2024-01-12T13:36:41.789Z,48.83
2024-01-12T13:39:08.994Z,49.64
2024-01-12T13:41:35.880Z,49.24
2024-01-12T13:44:04.074Z,49.44
2024-01-12T13:46:30.648Z,49.96
2024-01-12T13:48:57.760Z,50.73
2024-01-12T13:51:24.638Z,51.02
2024-01-12T13:53:51.745Z,50.99
2024-01-12T13:56:18.150Z,51.71
2024-01-12T13:58:46.547Z,50.98
2024-01-12T14:01:15.377Z,51.42
2024-01-12T14:03:42.804Z,51.53
2024-01-12T14:06:10.415Z,52.40
2024-01-12T14:08:38.262Z,52.33
2024-01-12T14:11:04.883Z,52.42
2024-01-12T14:13:31.823Z,53.37
2024-01-12T14:15:59.075Z,53.45
2024-01-12T14:18:25.644Z,53.26
2024-01-12T14:20:54.138Z,53.67
2024-01-12T14:23:20.870Z,53.47
2024-01-12T14:25:47.685Z,53.89
2024-01-12T14:28:23.206Z,53.84
2024-01-12T14:30:55.672Z,54.60
2024-01-12T14:33:22.374Z,54.10
2024-01-12T14:35:49.172Z,54.25
2024-01-12T14:38:15.698Z,54.36
2024-01-12T14:40:42.318Z,55.41
2024-01-12T14:43:08.767Z,55.45
2024-01-12T14:45:35.264Z,55.08
2024-01-12T14:48:08.793Z,55.19
2024-01-12T14:50:37.758Z,55.63
2024-01-12T14:53:04.575Z,55.10
2024-01-12T14:55:31.214Z,55.73
2024-01-12T14:57:57.659Z,56.28
2024-01-12T15:00:25.788Z,55.96
2024-01-12T15:02:52.512Z,55.58
2024-01-12T15:05:19.010Z,56.26
2024-01-12T15:07:46.210Z,56.36
2024-01-12T15:10:12.759Z,56.85
2024-01-12T15:12:40.732Z,56.57
2024-01-12T15:15:07.641Z,57.31
2024-01-12T15:17:34.437Z,57.96
2024-01-12T15:20:01.175Z,58.13
2024-01-12T15:22:27.660Z,58.14
2024-01-12T15:24:54.422Z,58.36
2024-01-12T15:27:21.588Z,58.07
2024-01-12T15:29:48.083Z,58.08
2024-01-12T15:32:14.577Z,58.43
2024-01-12T15:34:41.316Z,59.31
2024-01-12T15:37:08.033Z,59.01
2024-01-12T15:39:34.548Z,58.65
2024-01-12T15:42:01.075Z,59.13
2024-01-12T15:44:27.512Z,59.49
2024-01-12T15:46:54.013Z,59.25
2024-01-12T15:49:20.709Z,59.42
2024-01-12T15:51:48.502Z,60.52
2024-01-12T15:54:15.385Z,59.83
2024-01-12T15:56:42.197Z,60.83
2024-01-12T15:59:08.943Z,61.19
2024-01-12T16:01:35.357Z,61.02
2024-01-12T16:04:01.911Z,61.39
2024-01-12T16:06:28.613Z,61.50
2024-01-12T16:08:56.299Z,62.22
2024-01-12T16:11:23.550Z,61.91
2024-01-12T16:13:50.151Z,61.97
2024-01-12T16:16:16.630Z,62.36
2024-01-12T16:18:43.430Z,62.56
2024-01-12T16:21:10.953Z,63.27
2024-01-12T16:23:40.516Z,63.04
2024-01-12T16:26:07.662Z,63.45
2024-01-12T16:28:34.119Z,63.58
2024-01-12T16:31:00.900Z,63.06
2024-01-12T16:33:28.890Z,63.05
2024-01-12T16:35:55.504Z,63.74
2024-01-12T16:38:21.993Z,63.70
2024-01-12T16:40:48.458Z,63.76
2024-01-12T16:43:14.883Z,63.46
2024-01-12T16:45:41.291Z,63.48
2024-01-12T16:48:08.191Z,63.60
2024-01-12T16:50:34.820Z,63.77
2024-01-12T16:53:01.260Z,64.12
2024-01-12T16:55:28.101Z,64.46
2024-01-12T16:57:54.591Z,64.23
2024-01-12T17:00:21.498Z,64.30
2024-01-12T17:02:48.150Z,64.42
2024-01-12T17:05:14.782Z,64.89
2024-01-12T17:07:41.296Z,64.51
2024-01-12T17:10:09.243Z,64.79
2024-01-12T17:12:36.563Z,64.51
2024-01-12T17:15:03.577Z,64.93
2024-01-12T17:17:31.354Z,65.10
2024-01-12T17:19:58.717Z,65.26
2024-01-12T17:22:25.574Z,64.96
2024-01-12T17:24:53.415Z,65.28
2024-01-12T17:27:20.082Z,65.40
2024-01-12T17:29:47.541Z,65.63
2024-01-12T17:32:14.169Z,65.31
2024-01-12T17:34:41.025Z,65.65
2024-01-12T17:37:07.665Z,65.62
2024-01-12T17:39:34.651Z,65.95
2024-01-12T17:42:01.205Z,65.36
2024-01-12T17:44:27.762Z,65.69
2024-01-12T17:46:54.212Z,65.95
2024-01-12T17:49:22.098Z,65.59
2024-01-12T17:51:49.277Z,65.85
2024-01-12T17:54:15.932Z,66.27
2024-01-12T17:56:42.519Z,65.92
2024-01-12T17:59:10.594Z,66.09
2024-01-12T18:01:37.018Z,66.84
2024-01-12T18:04:03.819Z,66.81
2024-01-12T18:06:30.881Z,66.32
2024-01-12T18:08:59.249Z,66.64
2024-01-12T18:11:25.843Z,66.96
2024-01-12T18:13:52.314Z,66.87
2024-01-12T18:16:18.935Z,66.90
2024-01-12T18:18:45.686Z,66.99
2024-01-12T18:21:13.482Z,67.19
2024-01-12T18:23:40.282Z,67.86
2024-01-12T18:26:06.741Z,67.43
2024-01-12T18:28:33.192Z,67.42
2024-01-12T18:30:59.657Z,67.51
2024-01-12T18:33:26.281Z,68.04
2024-01-12T18:35:52.924Z,67.92
2024-01-12T18:38:19.504Z,67.99
2024-01-12T18:40:47.201Z,67.92
2024-01-12T18:43:13.857Z,68.22
2024-01-12T18:45:41.167Z,68.74
2024-01-12T18:48:07.838Z,69.04
2024-01-12T18:50:34.356Z,69.20
2024-01-12T18:53:00.936Z,69.35
2024-01-12T18:55:27.347Z,68.96
2024-01-12T18:57:55.007Z,69.25
2024-01-12T19:00:21.913Z,69.67
2024-01-12T19:02:48.740Z,69.60
2024-01-12T19:05:15.261Z,70.14
2024-01-12T19:07:41.663Z,70.05
2024-01-12T19:10:09.195Z,70.51
2024-01-12T19:12:35.948Z,70.19
2024-01-12T19:15:02.627Z,70.93
2024-01-12T19:17:29.558Z,70.39
2024-01-12T19:19:57.863Z,70.77
2024-01-12T19:22:24.441Z,70.99
2024-01-12T19:24:51.039Z,71.05
2024-01-12T19:27:17.611Z,71.00
2024-01-12T19:29:46.933Z,70.80
2024-01-12T19:32:14.553Z,71.15
2024-01-12T19:34:42.001Z,70.46
2024-01-12T19:37:08.642Z,70.13
2024-01-12T19:39:35.481Z,70.16
2024-01-12T19:42:02.061Z,69.78
2024-01-12T19:44:28.687Z,70.46
2024-01-12T19:46:55.274Z,70.28
2024-01-12T19:49:21.837Z,70.50
2024-01-12T19:51:48.341Z,70.18
2024-01-12T19:54:14.786Z,69.74
2024-01-12T19:56:41.252Z,69.80
2024-01-12T19:59:07.845Z,70.19
2024-01-12T20:01:34.245Z,70.08
2024-01-12T20:04:01.793Z,70.45
2024-01-12T20:06:28.690Z,70.20
2024-01-12T20:08:55.303Z,68.87
2024-01-12T20:11:21.921Z,70.02
2024-01-12T20:13:48.384Z,69.38
2024-01-12T20:16:15.993Z,69.68
2024-01-12T20:18:42.804Z,69.62
2024-01-12T20:21:12.835Z,69.49
2024-01-12T20:23:39.635Z,69.70
2024-01-12T20:26:06.904Z,69.64
2024-01-12T20:28:34.025Z,68.99
2024-01-12T20:31:00.652Z,69.59
2024-01-12T20:33:27.223Z,69.64
2024-01-12T20:35:53.756Z,69.16
2024-01-12T20:38:20.204Z,69.29
2024-01-12T20:40:46.673Z,69.25
2024-01-12T20:43:13.110Z,68.67
2024-01-12T20:45:41.257Z,68.63
2024-01-12T20:48:09.045Z,68.42
2024-01-12T20:50:35.513Z,68.47
2024-01-12T20:53:01.956Z,68.03
2024-01-12T20:55:28.502Z,68.24
2024-01-12T20:57:54.982Z,69.37
2024-01-12T21:00:21.675Z,69.70
2024-01-12T21:02:48.267Z,69.63
2024-01-12T21:05:15.809Z,69.01
2024-01-12T21:07:42.332Z,69.28
2024-01-12T21:10:09.457Z,69.77
2024-01-12T21:12:37.344Z,69.70
2024-01-12T21:15:04.606Z,68.72
2024-01-12T21:17:31.139Z,68.76
2024-01-12T21:19:57.955Z,68.29
2024-01-12T21:22:30.189Z,69.24
2024-01-12T21:25:05.268Z,69.80
2024-01-12T21:27:34.826Z,68.74
2024-01-12T21:30:01.423Z,68.46
2024-01-12T21:32:29.330Z,68.78
2024-01-12T21:34:55.990Z,68.91
2024-01-12T21:37:22.535Z,69.53
2024-01-12T21:39:49.237Z,68.71
2024-01-12T21:42:15.849Z,68.92
2024-01-12T21:44:46.184Z,68.69
2024-01-12T21:47:14.368Z,69.11
2024-01-12T21:49:40.911Z,68.69
2024-01-12T21:52:07.554Z,68.89
2024-01-12T21:54:34.548Z,69.16
2024-01-12T21:57:01.457Z,69.26
2024-01-12T21:59:28.087Z,68.48
2024-01-12T22:01:54.657Z,69.12
2024-01-12T22:04:21.153Z,69.03
2024-01-12T22:06:48.620Z,69.76
2024-01-12T22:09:15.357Z,69.85
2024-01-12T22:11:43.867Z,69.99
2024-01-12T22:14:10.467Z,69.29
2024-01-12T22:16:36.990Z,69.61
2024-01-12T22:19:04.723Z,70.04
2024-01-12T22:21:36.072Z,69.79
2024-01-12T22:24:08.935Z,69.96
2024-01-12T22:26:35.712Z,70.15
2024-01-12T22:29:02.211Z,69.55
2024-01-12T22:31:28.649Z,69.68
2024-01-12T22:33:55.204Z,69.62
2024-01-12T22:36:21.786Z,69.74
2024-01-12T22:38:48.299Z,70.13
2024-01-12T22:41:14.785Z,69.72
2024-01-12T22:43:41.542Z,69.44
2024-01-12T22:46:08.164Z,69.11
2024-01-12T22:48:34.754Z,69.76
2024-01-12T22:51:01.416Z,69.49
2024-01-12T22:53:28.110Z,69.61
2024-01-12T22:55:54.753Z,69.36
2024-01-12T22:58:21.238Z,69.92
2024-01-12T23:00:48.691Z,69.06
2024-01-12T23:03:15.870Z,68.67
2024-01-12T23:05:43.839Z,68.73
2024-01-12T23:08:10.557Z,68.79
2024-01-12T23:10:37.071Z,68.94
2024-01-12T23:13:03.515Z,68.74
2024-01-12T23:15:29.980Z,68.74
2024-01-12T23:17:56.585Z,68.70
2024-01-12T23:20:23.413Z,68.56
2024-01-12T23:22:50.089Z,68.52
2024-01-12T23:25:16.637Z,68.42
2024-01-12T23:27:44.431Z,68.53
2024-01-12T23:30:11.431Z,69.29
2024-01-12T23:32:38.418Z,69.09
2024-01-12T23:35:06.563Z,69.20
2024-01-12T23:37:33.224Z,69.21
2024-01-12T23:40:00.292Z,68.82
2024-01-12T23:42:26.735Z,69.39
2024-01-12T23:44:53.221Z,69.31
2024-01-12T23:47:19.791Z,68.57
2024-01-12T23:49:46.441Z,68.57
2024-01-12T23:52:13.054Z,68.75
2024-01-12T23:54:39.617Z,68.88
2024-01-12T23:57:06.183Z,68.55
2024-01-12T23:59:32.882Z,68.73
